sensor_id;sensor_type;location;lat;lon;timestamp;pressure;altitude;pressure_sealevel;temperature;humidity
76519;BME280;67029;51.054;13.798;2023-06-14T00:00:47;100323.69;;;18.75;43.29
76519;BME280;67029;51.054;13.798;2023-06-14T00:03:17;100320.09;;;18.74;43.61
76519;BME280;67029;51.054;13.798;2023-06-14T00:05:47;100320.27;;;18.72;43.46
76519;BME280;67029;51.054;13.798;2023-06-14T00:08:17;100317.34;;;18.70;43.72
76519;BME280;67029;51.054;13.798;2023-06-14T00:10:47;100315.22;;;18.68;43.79
76519;BME280;67029;51.054;13.798;2023-06-14T00:13:17;100310.79;;;18.64;43.59
76519;BME280;67029;51.054;13.798;2023-06-14T00:15:47;100320.46;;;18.51;43.49
76519;BME280;67029;51.054;13.798;2023-06-14T00:18:17;100310.58;;;18.45;43.99
76519;BME280;67029;51.054;13.798;2023-06-14T00:20:47;100308.52;;;18.43;44.12
76519;BME280;67029;51.054;13.798;2023-06-14T00:23:17;100312.17;;;18.40;43.76
76519;BME280;67029;51.054;13.798;2023-06-14T00:25:47;100317.00;;;18.41;44.21
76519;BME280;67029;51.054;13.798;2023-06-14T00:28:17;100313.84;;;18.39;44.28
76519;BME280;67029;51.054;13.798;2023-06-14T00:30:47;100314.42;;;18.37;44.36
76519;BME280;67029;51.054;13.798;2023-06-14T00:33:17;100311.34;;;18.30;44.15
76519;BME280;67029;51.054;13.798;2023-06-14T00:35:47;100307.59;;;18.26;44.08
76519;BME280;67029;51.054;13.798;2023-06-14T00:38:17;100306.06;;;18.20;44.35
76519;BME280;67029;51.054;13.798;2023-06-14T00:40:47;100307.34;;;18.18;44.58
76519;BME280;67029;51.054;13.798;2023-06-14T00:43:17;100306.17;;;18.16;44.73
76519;BME280;67029;51.054;13.798;2023-06-14T00:45:47;100307.30;;;18.13;44.77
76519;BME280;67029;51.054;13.798;2023-06-14T00:48:17;100307.30;;;18.10;44.91
76519;BME280;67029;51.054;13.798;2023-06-14T00:50:50;100312.36;;;18.07;45.04
76519;BME280;67029;51.054;13.798;2023-06-14T00:53:19;100316.27;;;18.04;44.96
76519;BME280;67029;51.054;13.798;2023-06-14T00:55:49;100314.68;;;18.01;45.29
76519;BME280;67029;51.054;13.798;2023-06-14T00:58:20;100314.86;;;17.97;45.27
76519;BME280;67029;51.054;13.798;2023-06-14T01:00:49;100306.77;;;17.93;45.37
76519;BME280;67029;51.054;13.798;2023-06-14T01:03:19;100308.62;;;17.90;45.25
76519;BME280;67029;51.054;13.798;2023-06-14T01:05:58;100308.23;;;17.82;45.51
76519;BME280;67029;51.054;13.798;2023-06-14T01:08:26;100309.45;;;17.80;45.70
76519;BME280;67029;51.054;13.798;2023-06-14T01:11:05;100306.50;;;17.78;45.97
76519;BME280;67029;51.054;13.798;2023-06-14T01:13:29;100306.86;;;17.74;45.82
76519;BME280;67029;51.054;13.798;2023-06-14T01:15:52;100304.59;;;17.67;45.80
76519;BME280;67029;51.054;13.798;2023-06-14T01:18:22;100306.25;;;17.67;46.41
76519;BME280;67029;51.054;13.798;2023-06-14T01:20:52;100306.30;;;17.64;46.41
76519;BME280;67029;51.054;13.798;2023-06-14T01:23:23;100308.34;;;17.58;46.11
76519;BME280;67029;51.054;13.798;2023-06-14T01:25:52;100308.02;;;17.55;46.38
76519;BME280;67029;51.054;13.798;2023-06-14T01:28:23;100310.17;;;17.51;46.01
76519;BME280;67029;51.054;13.798;2023-06-14T01:30:53;100305.66;;;17.41;46.42
76519;BME280;67029;51.054;13.798;2023-06-14T01:33:25;100301.99;;;17.40;46.80
76519;BME280;67029;51.054;13.798;2023-06-14T01:35:55;100300.89;;;17.40;46.73
76519;BME280;67029;51.054;13.798;2023-06-14T01:38:25;100298.95;;;17.40;46.97
76519;BME280;67029;51.054;13.798;2023-06-14T01:40:56;100297.44;;;17.39;47.08
76519;BME280;67029;51.054;13.798;2023-06-14T01:43:25;100296.20;;;17.38;47.43
76519;BME280;67029;51.054;13.798;2023-06-14T01:45:57;100295.56;;;17.31;47.57
76519;BME280;67029;51.054;13.798;2023-06-14T01:48:26;100293.20;;;17.30;47.81
76519;BME280;67029;51.054;13.798;2023-06-14T01:50:56;100293.92;;;17.27;48.37
76519;BME280;67029;51.054;13.798;2023-06-14T01:53:26;100293.72;;;17.20;47.79
76519;BME280;67029;51.054;13.798;2023-06-14T01:55:56;100296.52;;;17.16;47.95
76519;BME280;67029;51.054;13.798;2023-06-14T01:58:26;100299.34;;;17.14;47.71
76519;BME280;67029;51.054;13.798;2023-06-14T02:00:56;100297.72;;;17.16;48.02
76519;BME280;67029;51.054;13.798;2023-06-14T02:03:26;100298.13;;;17.16;48.26
76519;BME280;67029;51.054;13.798;2023-06-14T02:05:56;100298.66;;;17.14;47.88
76519;BME280;67029;51.054;13.798;2023-06-14T02:08:26;100310.69;;;17.12;47.90
76519;BME280;67029;51.054;13.798;2023-06-14T02:10:56;100307.45;;;17.09;47.89
76519;BME280;67029;51.054;13.798;2023-06-14T02:13:26;100313.23;;;17.10;48.13
76519;BME280;67029;51.054;13.798;2023-06-14T02:15:56;100315.20;;;17.08;48.11
76519;BME280;67029;51.054;13.798;2023-06-14T02:18:26;100310.52;;;17.07;48.19
76519;BME280;67029;51.054;13.798;2023-06-14T02:20:56;100315.66;;;17.07;48.30
76519;BME280;67029;51.054;13.798;2023-06-14T02:23:26;100310.45;;;17.07;48.44
76519;BME280;67029;51.054;13.798;2023-06-14T02:25:56;100313.23;;;17.06;48.42
76519;BME280;67029;51.054;13.798;2023-06-14T02:28:26;100314.86;;;17.01;48.30
76519;BME280;67029;51.054;13.798;2023-06-14T02:30:56;100316.00;;;16.99;48.81
76519;BME280;67029;51.054;13.798;2023-06-14T02:33:26;100320.15;;;16.98;48.83
76519;BME280;67029;51.054;13.798;2023-06-14T02:35:56;100321.96;;;16.95;48.69
76519;BME280;67029;51.054;13.798;2023-06-14T02:38:26;100319.89;;;16.93;48.99
76519;BME280;67029;51.054;13.798;2023-06-14T02:40:56;100324.69;;;16.91;48.94
76519;BME280;67029;51.054;13.798;2023-06-14T02:43:26;100326.78;;;16.89;48.96
76519;BME280;67029;51.054;13.798;2023-06-14T02:45:56;100329.31;;;16.86;49.09
76519;BME280;67029;51.054;13.798;2023-06-14T02:48:27;100329.42;;;16.83;49.05
76519;BME280;67029;51.054;13.798;2023-06-14T02:50:57;100325.33;;;16.81;49.20
76519;BME280;67029;51.054;13.798;2023-06-14T02:53:27;100328.44;;;16.77;49.02
76519;BME280;67029;51.054;13.798;2023-06-14T02:55:57;100326.95;;;16.73;49.02
76519;BME280;67029;51.054;13.798;2023-06-14T02:58:27;100325.97;;;16.70;49.17
76519;BME280;67029;51.054;13.798;2023-06-14T03:00:57;100325.63;;;16.68;49.23
76519;BME280;67029;51.054;13.798;2023-06-14T03:03:27;100329.83;;;16.65;49.18
76519;BME280;67029;51.054;13.798;2023-06-14T03:05:57;100331.48;;;16.63;49.27
76519;BME280;67029;51.054;13.798;2023-06-14T03:08:27;100333.98;;;16.61;49.55
76519;BME280;67029;51.054;13.798;2023-06-14T03:10:57;100332.22;;;16.59;49.89
76519;BME280;67029;51.054;13.798;2023-06-14T03:13:27;100332.20;;;16.57;49.93
76519;BME280;67029;51.054;13.798;2023-06-14T03:15:57;100333.86;;;16.53;49.93
76519;BME280;67029;51.054;13.798;2023-06-14T03:18:28;100337.33;;;16.50;50.05
76519;BME280;67029;51.054;13.798;2023-06-14T03:20:57;100338.31;;;16.46;50.03
76519;BME280;67029;51.054;13.798;2023-06-14T03:23:27;100335.31;;;16.44;50.12
76519;BME280;67029;51.054;13.798;2023-06-14T03:25:57;100333.10;;;16.42;50.29
76519;BME280;67029;51.054;13.798;2023-06-14T03:28:27;100334.00;;;16.41;50.19
76519;BME280;67029;51.054;13.798;2023-06-14T03:30:57;100336.62;;;16.40;50.42
76519;BME280;67029;51.054;13.798;2023-06-14T03:33:27;100338.08;;;16.39;50.27
76519;BME280;67029;51.054;13.798;2023-06-14T03:35:57;100349.92;;;16.39;50.25
76519;BME280;67029;51.054;13.798;2023-06-14T03:38:27;100349.83;;;16.38;50.57
76519;BME280;67029;51.054;13.798;2023-06-14T03:40:57;100356.13;;;16.37;50.67
76519;BME280;67029;51.054;13.798;2023-06-14T03:43:27;100358.91;;;16.36;50.68
76519;BME280;67029;51.054;13.798;2023-06-14T03:45:57;100359.96;;;16.38;50.63
76519;BME280;67029;51.054;13.798;2023-06-14T03:48:28;100365.08;;;16.40;50.79
76519;BME280;67029;51.054;13.798;2023-06-14T03:50:58;100365.89;;;16.45;50.99
76519;BME280;67029;51.054;13.798;2023-06-14T03:53:28;100367.59;;;16.47;51.04
76519;BME280;67029;51.054;13.798;2023-06-14T03:55:58;100372.14;;;16.48;50.72
76519;BME280;67029;51.054;13.798;2023-06-14T03:58:28;100379.20;;;16.47;50.91
76519;BME280;67029;51.054;13.798;2023-06-14T04:00:58;100379.07;;;16.51;50.88
76519;BME280;67029;51.054;13.798;2023-06-14T04:03:28;100382.87;;;16.55;50.79
76519;BME280;67029;51.054;13.798;2023-06-14T04:05:58;100382.96;;;16.59;50.93
76519;BME280;67029;51.054;13.798;2023-06-14T04:08:28;100392.53;;;16.63;50.58
76519;BME280;67029;51.054;13.798;2023-06-14T04:10:58;100389.42;;;16.68;50.45
76519;BME280;67029;51.054;13.798;2023-06-14T04:13:28;100386.05;;;16.75;50.71
76519;BME280;67029;51.054;13.798;2023-06-14T04:15:58;100390.16;;;16.79;50.42
76519;BME280;67029;51.054;13.798;2023-06-14T04:18:28;100393.17;;;16.85;50.48
76519;BME280;67029;51.054;13.798;2023-06-14T04:20:58;100391.64;;;16.94;50.60
76519;BME280;67029;51.054;13.798;2023-06-14T04:23:28;100395.95;;;17.01;50.41
76519;BME280;67029;51.054;13.798;2023-06-14T04:25:58;100390.73;;;17.09;50.28
76519;BME280;67029;51.054;13.798;2023-06-14T04:28:28;100379.41;;;17.12;50.11
76519;BME280;67029;51.054;13.798;2023-06-14T04:30:58;100380.22;;;17.17;50.14
76519;BME280;67029;51.054;13.798;2023-06-14T04:33:28;100381.03;;;17.21;49.79
76519;BME280;67029;51.054;13.798;2023-06-14T04:35:58;100382.95;;;17.17;49.84
76519;BME280;67029;51.054;13.798;2023-06-14T04:38:28;100382.33;;;17.24;49.82
76519;BME280;67029;51.054;13.798;2023-06-14T04:40:58;100388.38;;;17.35;49.87
76519;BME280;67029;51.054;13.798;2023-06-14T04:43:28;100391.83;;;17.45;49.66
76519;BME280;67029;51.054;13.798;2023-06-14T04:45:58;100402.47;;;17.54;49.60
76519;BME280;67029;51.054;13.798;2023-06-14T04:48:28;100413.27;;;17.55;49.28
76519;BME280;67029;51.054;13.798;2023-06-14T04:50:58;100414.47;;;17.55;49.33
76519;BME280;67029;51.054;13.798;2023-06-14T04:53:28;100417.04;;;17.59;49.26
76519;BME280;67029;51.054;13.798;2023-06-14T04:55:58;100413.18;;;17.64;49.22
76519;BME280;67029;51.054;13.798;2023-06-14T04:58:28;100418.75;;;17.67;49.10
76519;BME280;67029;51.054;13.798;2023-06-14T05:00:59;100414.97;;;17.73;49.08
76519;BME280;67029;51.054;13.798;2023-06-14T05:03:29;100415.38;;;17.77;49.05
76519;BME280;67029;51.054;13.798;2023-06-14T05:05:59;100415.70;;;17.83;48.92
76519;BME280;67029;51.054;13.798;2023-06-14T05:08:29;100417.13;;;17.87;48.74
76519;BME280;67029;51.054;13.798;2023-06-14T05:10:59;100421.76;;;17.92;48.76
76519;BME280;67029;51.054;13.798;2023-06-14T05:13:29;100424.56;;;17.97;48.62
76519;BME280;67029;51.054;13.798;2023-06-14T05:15:59;100425.59;;;18.01;48.54
76519;BME280;67029;51.054;13.798;2023-06-14T05:18:29;100424.64;;;18.03;48.47
76519;BME280;67029;51.054;13.798;2023-06-14T05:20:59;100427.84;;;18.06;48.35
76519;BME280;67029;51.054;13.798;2023-06-14T05:23:29;100429.50;;;18.11;48.38
76519;BME280;67029;51.054;13.798;2023-06-14T05:25:59;100430.72;;;18.11;48.28
76519;BME280;67029;51.054;13.798;2023-06-14T05:28:29;100427.84;;;18.14;48.38
76519;BME280;67029;51.054;13.798;2023-06-14T05:30:59;100428.55;;;18.19;48.21
76519;BME280;67029;51.054;13.798;2023-06-14T05:33:29;100427.52;;;18.23;48.08
76519;BME280;67029;51.054;13.798;2023-06-14T05:35:59;100428.33;;;18.25;48.14
76519;BME280;67029;51.054;13.798;2023-06-14T05:38:29;100428.11;;;18.30;48.16
76519;BME280;67029;51.054;13.798;2023-06-14T05:40:59;100426.36;;;18.34;48.15
76519;BME280;67029;51.054;13.798;2023-06-14T05:43:29;100427.11;;;18.38;48.04
76519;BME280;67029;51.054;13.798;2023-06-14T05:45:59;100427.20;;;18.42;48.02
76519;BME280;67029;51.054;13.798;2023-06-14T05:48:30;100431.48;;;18.43;47.96
76519;BME280;67029;51.054;13.798;2023-06-14T05:50:59;100434.51;;;18.46;47.98
76519;BME280;67029;51.054;13.798;2023-06-14T05:53:29;100430.34;;;18.47;47.79
76519;BME280;67029;51.054;13.798;2023-06-14T05:55:59;100431.50;;;18.52;47.75
76519;BME280;67029;51.054;13.798;2023-06-14T05:58:29;100428.73;;;18.58;47.66
76519;BME280;67029;51.054;13.798;2023-06-14T06:00:59;100428.11;;;18.64;47.66
76519;BME280;67029;51.054;13.798;2023-06-14T06:03:29;100428.39;;;18.73;47.60
76519;BME280;67029;51.054;13.798;2023-06-14T06:05:59;100431.88;;;18.82;47.41
76519;BME280;67029;51.054;13.798;2023-06-14T06:08:30;100428.25;;;18.90;47.45
76519;BME280;67029;51.054;13.798;2023-06-14T06:10:59;100424.84;;;18.95;47.24
76519;BME280;67029;51.054;13.798;2023-06-14T06:13:29;100432.62;;;19.03;47.11
76519;BME280;67029;51.054;13.798;2023-06-14T06:18:30;100439.74;;;19.40;46.65
76519;BME280;67029;51.054;13.798;2023-06-14T06:21:00;100444.57;;;19.56;46.08
76519;BME280;67029;51.054;13.798;2023-06-14T06:23:30;100454.07;;;19.61;45.92
76519;BME280;67029;51.054;13.798;2023-06-14T06:26:00;100451.61;;;19.62;45.91
76519;BME280;67029;51.054;13.798;2023-06-14T06:28:30;100453.22;;;19.63;45.85
76519;BME280;67029;51.054;13.798;2023-06-14T06:31:00;100452.73;;;19.59;45.88
76519;BME280;67029;51.054;13.798;2023-06-14T06:33:30;100458.05;;;19.57;46.11
76519;BME280;67029;51.054;13.798;2023-06-14T06:36:00;100458.52;;;19.53;46.12
76519;BME280;67029;51.054;13.798;2023-06-14T06:38:30;100462.47;;;19.59;46.09
76519;BME280;67029;51.054;13.798;2023-06-14T06:41:00;100460.77;;;19.61;46.14
76519;BME280;67029;51.054;13.798;2023-06-14T06:43:30;100463.89;;;19.66;46.09
76519;BME280;67029;51.054;13.798;2023-06-14T06:46:00;100464.58;;;19.73;46.11
76519;BME280;67029;51.054;13.798;2023-06-14T06:48:30;100460.33;;;19.78;46.03
76519;BME280;67029;51.054;13.798;2023-06-14T06:51:00;100460.27;;;19.81;46.11
76519;BME280;67029;51.054;13.798;2023-06-14T06:53:31;100460.98;;;19.90;45.91
76519;BME280;67029;51.054;13.798;2023-06-14T06:56:00;100459.52;;;19.95;45.70
76519;BME280;67029;51.054;13.798;2023-06-14T06:58:30;100456.80;;;20.00;45.69
76519;BME280;67029;51.054;13.798;2023-06-14T07:01:00;100450.49;;;20.03;45.58
76519;BME280;67029;51.054;13.798;2023-06-14T07:03:31;100448.88;;;20.02;45.61
76519;BME280;67029;51.054;13.798;2023-06-14T07:06:00;100445.38;;;20.08;45.59
76519;BME280;67029;51.054;13.798;2023-06-14T07:08:31;100444.48;;;20.13;45.54
76519;BME280;67029;51.054;13.798;2023-06-14T07:11:01;100448.08;;;20.25;45.43
76519;BME280;67029;51.054;13.798;2023-06-14T07:13:31;100452.96;;;20.38;45.38
76519;BME280;67029;51.054;13.798;2023-06-14T07:16:01;100458.80;;;20.53;45.25
76519;BME280;67029;51.054;13.798;2023-06-14T07:18:31;100457.91;;;20.67;45.08
76519;BME280;67029;51.054;13.798;2023-06-14T07:21:01;100452.84;;;20.81;44.92
76519;BME280;67029;51.054;13.798;2023-06-14T07:23:31;100456.44;;;20.93;44.69
76519;BME280;67029;51.054;13.798;2023-06-14T07:26:01;100453.70;;;21.07;43.47
76519;BME280;67029;51.054;13.798;2023-06-14T07:28:31;100449.49;;;21.17;43.24
76519;BME280;67029;51.054;13.798;2023-06-14T07:31:01;100452.52;;;21.29;42.75
76519;BME280;67029;51.054;13.798;2023-06-14T07:33:31;100450.26;;;21.40;42.06
76519;BME280;67029;51.054;13.798;2023-06-14T07:36:01;100455.14;;;21.46;41.72
76519;BME280;67029;51.054;13.798;2023-06-14T07:38:31;100451.05;;;21.51;41.88
76519;BME280;67029;51.054;13.798;2023-06-14T07:41:01;100454.60;;;21.60;41.99
76519;BME280;67029;51.054;13.798;2023-06-14T07:43:31;100457.19;;;21.69;41.98
76519;BME280;67029;51.054;13.798;2023-06-14T07:46:01;100460.84;;;21.82;41.78
76519;BME280;67029;51.054;13.798;2023-06-14T07:48:31;100464.41;;;21.96;40.68
76519;BME280;67029;51.054;13.798;2023-06-14T07:51:02;100474.61;;;22.03;40.10
76519;BME280;67029;51.054;13.798;2023-06-14T07:53:31;100470.73;;;22.09;39.11
76519;BME280;67029;51.054;13.798;2023-06-14T07:56:02;100471.41;;;22.11;39.42
76519;BME280;67029;51.054;13.798;2023-06-14T07:58:32;100464.25;;;22.18;39.48
76519;BME280;67029;51.054;13.798;2023-06-14T08:01:02;100468.08;;;22.26;39.50
76519;BME280;67029;51.054;13.798;2023-06-14T08:03:32;100466.73;;;22.29;39.29
76519;BME280;67029;51.054;13.798;2023-06-14T08:06:02;100469.03;;;22.37;39.45
76519;BME280;67029;51.054;13.798;2023-06-14T08:08:32;100463.23;;;22.49;39.08
76519;BME280;67029;51.054;13.798;2023-06-14T08:11:02;100467.54;;;22.56;39.02
76519;BME280;67029;51.054;13.798;2023-06-14T08:13:32;100463.90;;;22.67;38.18
76519;BME280;67029;51.054;13.798;2023-06-14T08:16:02;100468.08;;;22.73;38.64
76519;BME280;67029;51.054;13.798;2023-06-14T08:18:32;100470.59;;;22.90;38.16
76519;BME280;67029;51.054;13.798;2023-06-14T08:21:02;100465.94;;;23.07;37.85
76519;BME280;67029;51.054;13.798;2023-06-14T08:23:32;100470.22;;;23.23;37.80
76519;BME280;67029;51.054;13.798;2023-06-14T08:26:02;100471.52;;;23.44;37.67
76519;BME280;67029;51.054;13.798;2023-06-14T08:28:32;100466.96;;;23.67;36.98
76519;BME280;67029;51.054;13.798;2023-06-14T08:31:02;100465.80;;;23.90;36.04
76519;BME280;67029;51.054;13.798;2023-06-14T08:33:32;100466.58;;;24.08;35.17
76519;BME280;67029;51.054;13.798;2023-06-14T08:36:03;100464.62;;;24.23;34.51
76519;BME280;67029;51.054;13.798;2023-06-14T08:38:33;100467.06;;;24.24;34.52
76519;BME280;67029;51.054;13.798;2023-06-14T08:41:05;100466.91;;;24.37;34.45
76519;BME280;67029;51.054;13.798;2023-06-14T08:43:33;100466.76;;;24.50;34.62
76519;BME280;67029;51.054;13.798;2023-06-14T08:46:04;100465.64;;;24.65;34.32
76519;BME280;67029;51.054;13.798;2023-06-14T08:48:34;100459.88;;;24.79;34.65
76519;BME280;67029;51.054;13.798;2023-06-14T08:51:04;100459.20;;;25.02;34.77
76519;BME280;67029;51.054;13.798;2023-06-14T08:53:36;100462.58;;;25.31;34.66
76519;BME280;67029;51.054;13.798;2023-06-14T08:56:05;100462.30;;;25.52;34.06
76519;BME280;67029;51.054;13.798;2023-06-14T08:58:35;100470.00;;;25.78;33.46
76519;BME280;67029;51.054;13.798;2023-06-14T09:01:06;100469.66;;;25.99;31.99
76519;BME280;67029;51.054;13.798;2023-06-14T09:03:36;100468.55;;;26.19;31.89
76519;BME280;67029;51.054;13.798;2023-06-14T09:06:06;100467.91;;;26.42;31.57
76519;BME280;67029;51.054;13.798;2023-06-14T09:08:36;100474.38;;;26.60;30.66
76519;BME280;67029;51.054;13.798;2023-06-14T09:11:06;100474.31;;;26.78;29.83
76519;BME280;67029;51.054;13.798;2023-06-14T09:13:36;100482.36;;;26.90;29.75
76519;BME280;67029;51.054;13.798;2023-06-14T09:16:07;100474.65;;;26.95;29.46
76519;BME280;67029;51.054;13.798;2023-06-14T09:18:38;100478.06;;;27.09;28.71
76519;BME280;67029;51.054;13.798;2023-06-14T09:21:07;100486.65;;;27.12;28.89
76519;BME280;67029;51.054;13.798;2023-06-14T09:23:38;100480.45;;;27.13;29.08
76519;BME280;67029;51.054;13.798;2023-06-14T09:26:12;100476.28;;;27.13;28.58
76519;BME280;67029;51.054;13.798;2023-06-14T09:28:42;100477.62;;;27.13;28.84
76519;BME280;67029;51.054;13.798;2023-06-14T09:31:10;100476.94;;;27.14;28.66
76519;BME280;67029;51.054;13.798;2023-06-14T09:33:47;100475.16;;;27.16;28.95
76519;BME280;67029;51.054;13.798;2023-06-14T09:36:12;100473.15;;;27.28;29.26
76519;BME280;67029;51.054;13.798;2023-06-14T09:38:41;100469.88;;;27.34;29.13
76519;BME280;67029;51.054;13.798;2023-06-14T09:41:11;100467.48;;;27.50;29.18
76519;BME280;67029;51.054;13.798;2023-06-14T09:43:41;100467.25;;;27.66;28.62
76519;BME280;67029;51.054;13.798;2023-06-14T09:46:11;100468.26;;;27.84;28.47
76519;BME280;67029;51.054;13.798;2023-06-14T09:48:41;100468.66;;;28.01;28.33
76519;BME280;67029;51.054;13.798;2023-06-14T09:51:13;100467.45;;;28.18;28.49
76519;BME280;67029;51.054;13.798;2023-06-14T09:53:42;100468.82;;;28.34;28.43
76519;BME280;67029;51.054;13.798;2023-06-14T09:56:13;100468.17;;;28.48;28.06
76519;BME280;67029;51.054;13.798;2023-06-14T09:58:43;100465.17;;;28.56;27.75
76519;BME280;67029;51.054;13.798;2023-06-14T10:01:13;100465.34;;;28.56;27.84
76519;BME280;67029;51.054;13.798;2023-06-14T10:03:45;100466.45;;;28.57;27.74
76519;BME280;67029;51.054;13.798;2023-06-14T10:06:14;100462.04;;;28.58;28.04
76519;BME280;67029;51.054;13.798;2023-06-14T10:08:45;100469.00;;;28.61;27.93
76519;BME280;67029;51.054;13.798;2023-06-14T10:11:16;100465.97;;;28.62;27.82
76519;BME280;67029;51.054;13.798;2023-06-14T10:13:46;100463.36;;;28.65;27.99
76519;BME280;67029;51.054;13.798;2023-06-14T10:18:59;100461.84;;;28.94;28.37
76519;BME280;67029;51.054;13.798;2023-06-14T10:23:49;100463.47;;;29.39;27.63
76519;BME280;67029;51.054;13.798;2023-06-14T10:26:19;100457.70;;;29.62;27.27
76519;BME280;67029;51.054;13.798;2023-06-14T10:28:56;100461.00;;;29.87;27.28
76519;BME280;67029;51.054;13.798;2023-06-14T10:31:19;100460.70;;;30.10;26.78
76519;BME280;67029;51.054;13.798;2023-06-14T10:33:55;100450.16;;;30.26;26.35
76519;BME280;67029;51.054;13.798;2023-06-14T10:36:27;100458.98;;;30.43;26.53
76519;BME280;67029;51.054;13.798;2023-06-14T10:38:57;100451.98;;;30.57;26.14
76519;BME280;67029;51.054;13.798;2023-06-14T10:41:21;100462.65;;;30.66;26.01
76519;BME280;67029;51.054;13.798;2023-06-14T10:43:51;100460.39;;;30.70;25.94
76519;BME280;67029;51.054;13.798;2023-06-14T10:46:28;100454.81;;;30.69;25.74
76519;BME280;67029;51.054;13.798;2023-06-14T10:48:57;100453.79;;;30.69;25.86
76519;BME280;67029;51.054;13.798;2023-06-14T10:51:22;100450.22;;;30.70;25.77
76519;BME280;67029;51.054;13.798;2023-06-14T10:53:56;100439.86;;;30.60;26.07
76519;BME280;67029;51.054;13.798;2023-06-14T10:56:26;100445.94;;;30.58;25.91
76519;BME280;67029;51.054;13.798;2023-06-14T10:58:55;100447.06;;;30.56;26.07
76519;BME280;67029;51.054;13.798;2023-06-14T11:01:40;100446.70;;;30.52;25.93
76519;BME280;67029;51.054;13.798;2023-06-14T11:03:56;100441.20;;;30.43;26.04
76519;BME280;67029;51.054;13.798;2023-06-14T11:06:30;100437.96;;;30.34;26.18
76519;BME280;67029;51.054;13.798;2023-06-14T11:11:31;100439.91;;;30.22;26.62
76519;BME280;67029;51.054;13.798;2023-06-14T11:13:59;100435.34;;;30.20;26.75
76519;BME280;67029;51.054;13.798;2023-06-14T11:16:28;100434.98;;;30.14;26.73
76519;BME280;67029;51.054;13.798;2023-06-14T11:19:00;100434.03;;;30.05;26.76
76519;BME280;67029;51.054;13.798;2023-06-14T11:21:29;100435.22;;;29.93;26.74
76519;BME280;67029;51.054;13.798;2023-06-14T11:23:59;100437.08;;;29.79;26.74
76519;BME280;67029;51.054;13.798;2023-06-14T11:26:30;100435.77;;;29.63;27.10
76519;BME280;67029;51.054;13.798;2023-06-14T11:29:00;100437.14;;;29.45;27.33
76519;BME280;67029;51.054;13.798;2023-06-14T11:31:30;100438.50;;;29.31;27.59
76519;BME280;67029;51.054;13.798;2023-06-14T11:34:00;100438.79;;;29.18;27.84
76519;BME280;67029;51.054;13.798;2023-06-14T11:36:31;100439.83;;;29.03;27.93
76519;BME280;67029;51.054;13.798;2023-06-14T11:39:05;100438.42;;;28.89;28.14
76519;BME280;67029;51.054;13.798;2023-06-14T11:41:38;100439.16;;;28.76;28.28
76519;BME280;67029;51.054;13.798;2023-06-14T11:44:02;100436.94;;;28.65;28.49
76519;BME280;67029;51.054;13.798;2023-06-14T11:46:32;100440.54;;;28.58;28.57
76519;BME280;67029;51.054;13.798;2023-06-14T11:49:03;100435.22;;;28.45;28.80
76519;BME280;67029;51.054;13.798;2023-06-14T11:51:34;100434.62;;;28.37;29.01
76519;BME280;67029;51.054;13.798;2023-06-14T11:54:06;100436.03;;;28.32;29.21
76519;BME280;67029;51.054;13.798;2023-06-14T11:56:36;100436.03;;;28.27;29.19
76519;BME280;67029;51.054;13.798;2023-06-14T11:59:05;100434.71;;;28.19;29.36
76519;BME280;67029;51.054;13.798;2023-06-14T12:01:36;100431.48;;;28.14;29.53
76519;BME280;67029;51.054;13.798;2023-06-14T12:04:06;100430.73;;;28.11;29.81
76519;BME280;67029;51.054;13.798;2023-06-14T12:06:36;100420.30;;;28.11;30.03
76519;BME280;67029;51.054;13.798;2023-06-14T12:09:06;100422.11;;;28.06;30.10
76519;BME280;67029;51.054;13.798;2023-06-14T12:11:36;100421.23;;;28.05;30.30
76519;BME280;67029;51.054;13.798;2023-06-14T12:14:08;100427.19;;;28.04;30.45
76519;BME280;67029;51.054;13.798;2023-06-14T12:16:39;100428.45;;;28.04;30.52
76519;BME280;67029;51.054;13.798;2023-06-14T12:19:13;100431.59;;;28.05;30.59
76519;BME280;67029;51.054;13.798;2023-06-14T12:21:38;100433.22;;;27.99;30.61
76519;BME280;67029;51.054;13.798;2023-06-14T12:24:09;100438.31;;;27.95;30.64
76519;BME280;67029;51.054;13.798;2023-06-14T12:26:39;100435.19;;;27.91;30.77
76519;BME280;67029;51.054;13.798;2023-06-14T12:29:09;100435.94;;;27.89;30.67
76519;BME280;67029;51.054;13.798;2023-06-14T12:31:39;100436.46;;;27.87;30.76
76519;BME280;67029;51.054;13.798;2023-06-14T12:34:09;100435.89;;;27.83;30.91
76519;BME280;67029;51.054;13.798;2023-06-14T12:36:39;100431.59;;;27.88;31.22
76519;BME280;67029;51.054;13.798;2023-06-14T12:39:09;100421.69;;;27.96;31.33
76519;BME280;67029;51.054;13.798;2023-06-14T12:41:39;100416.94;;;28.26;31.55
76519;BME280;67029;51.054;13.798;2023-06-14T12:44:10;100413.59;;;28.63;31.21
76519;BME280;67029;51.054;13.798;2023-06-14T12:46:41;100409.45;;;28.97;30.83
76519;BME280;67029;51.054;13.798;2023-06-14T12:49:11;100406.17;;;29.30;30.43
76519;BME280;67029;51.054;13.798;2023-06-14T12:51:41;100409.80;;;29.56;29.94
76519;BME280;67029;51.054;13.798;2023-06-14T12:54:11;100414.19;;;29.68;29.62
76519;BME280;67029;51.054;13.798;2023-06-14T12:56:41;100412.44;;;29.72;29.29
76519;BME280;67029;51.054;13.798;2023-06-14T12:59:11;100414.89;;;29.70;29.26
76519;BME280;67029;51.054;13.798;2023-06-14T13:01:41;100414.72;;;29.66;29.22
76519;BME280;67029;51.054;13.798;2023-06-14T13:04:11;100405.98;;;29.53;29.25